Time;durP1;ratioP1;P1;durP2;ratioP2;P2;SDS_P1;SDS_P2;PMS_P1;PMS_P2;Temp;Humidity;BMP_temperature;BMP_pressure;BME280_temperature;BME280_humidity;BME280_pressure;Samples;Min_cycle;Max_cycle;Signal;HPM_P1;HPM_P2
2023/06/15 00:01:40;;;;;;;3.42;2.90;;;16.40;99.90;;;;;;5078676;28;20032;-39
2023/06/15 00:04:06;;;;;;;4.40;3.00;;;16.40;99.90;;;;;;5082703;28;20035;-35
2023/06/15 00:06:32;;;;;;;3.40;2.80;;;16.30;99.90;;;;;;5068900;28;20042;-36
2023/06/15 00:08:58;;;;;;;5.72;2.92;;;16.30;99.90;;;;;;5079464;28;20476;-38
2023/06/15 00:11:25;;;;;;;4.95;2.88;;;16.20;99.90;;;;;;5082170;28;20093;-37
2023/06/15 00:13:51;;;;;;;3.67;2.63;;;16.20;99.90;;;;;;5079004;28;20036;-35
2023/06/15 00:16:18;;;;;;;4.05;3.30;;;16.10;99.90;;;;;;5080336;28;20115;-38
2023/06/15 00:18:54;;;;;;;3.70;2.80;;;16.10;99.90;;;;;;5085710;28;20075;-38
2023/06/15 00:21:22;;;;;;;4.68;2.70;;;16.10;99.90;;;;;;5076428;28;20036;-35
2023/06/15 00:23:48;;;;;;;4.68;2.83;;;16.10;99.90;;;;;;5081636;28;20047;-36
2023/06/15 00:26:14;;;;;;;3.65;2.42;;;16.10;99.90;;;;;;5075762;28;20043;-36
2023/06/15 00:28:40;;;;;;;4.13;3.20;;;16.00;99.90;;;;;;5092497;28;20145;-36
2023/06/15 00:31:05;;;;;;;3.72;2.80;;;15.90;99.90;;;;;;5079767;28;20139;-38
2023/06/15 00:33:31;;;;;;;3.97;2.63;;;15.90;99.90;;;;;;5076559;28;20541;-37
2023/06/15 00:35:59;;;;;;;4.13;2.90;;;15.90;99.90;;;;;;5073088;28;20119;-38
2023/06/15 00:38:24;;;;;;;6.35;3.17;;;15.80;99.90;;;;;;5071484;28;20041;-35
2023/06/15 00:40:50;;;;;;;5.47;3.03;;;15.80;99.90;;;;;;5083347;28;20039;-38
2023/06/15 00:43:18;;;;;;;3.45;2.83;;;15.70;99.90;;;;;;5083674;28;20034;-35
2023/06/15 00:45:44;;;;;;;5.30;2.72;;;15.70;99.90;;;;;;5085295;28;20485;-35
2023/06/15 00:48:11;;;;;;;4.55;2.55;;;15.70;99.90;;;;;;5072239;28;20105;-36
2023/06/15 00:50:39;;;;;;;6.40;2.92;;;15.60;99.90;;;;;;5074366;28;20036;-35
2023/06/15 00:53:06;;;;;;;5.38;2.90;;;15.60;99.90;;;;;;5081737;28;20386;-36
2023/06/15 00:55:33;;;;;;;5.07;3.10;;;15.50;99.90;;;;;;5076663;28;20118;-39
2023/06/15 00:57:59;;;;;;;3.72;2.80;;;15.50;99.90;;;;;;5079417;28;20085;-35
2023/06/15 01:00:25;;;;;;;4.57;2.92;;;15.50;99.90;;;;;;5081031;28;20490;-36
2023/06/15 01:02:56;;;;;;;4.03;3.05;;;15.40;99.90;;;;;;5085190;28;20032;-39
2023/06/15 01:05:23;;;;;;;3.47;2.83;;;15.30;99.90;;;;;;5072943;28;20045;-35
2023/06/15 01:07:51;;;;;;;4.57;2.65;;;15.30;99.90;;;;;;5075470;28;20044;-35
2023/06/15 01:10:20;;;;;;;3.80;3.40;;;15.30;99.90;;;;;;5083075;28;20044;-36
2023/06/15 01:12:50;;;;;;;5.90;2.95;;;15.30;99.90;;;;;;5072426;28;20047;-35
2023/06/15 01:15:16;;;;;;;3.70;2.92;;;15.30;99.90;;;;;;5079013;28;20532;-39
2023/06/15 01:17:45;;;;;;;5.70;3.30;;;15.30;99.90;;;;;;5075454;28;20173;-39
2023/06/15 01:20:26;;;;;;;3.97;2.95;;;15.20;99.90;;;;;;5084720;28;20057;-40
2023/06/15 01:23:30;;;;;;;3.20;2.90;;;15.20;99.90;;;;;;5073467;28;20039;-35
2023/06/15 01:26:07;;;;;;;4.70;3.90;;;15.10;99.90;;;;;;5070606;28;20400;-36
2023/06/15 01:28:40;;;;;;;5.28;3.58;;;15.10;99.90;;;;;;5077124;28;20032;-38
2023/06/15 01:31:07;;;;;;;3.72;3.00;;;15.10;99.90;;;;;;5071127;28;20067;-35
2023/06/15 01:33:33;;;;;;;8.25;2.90;;;15.00;99.90;;;;;;5079496;28;20079;-37
2023/06/15 01:35:59;;;;;;;4.05;3.17;;;15.00;99.90;;;;;;5085288;28;20083;-38
2023/06/15 01:38:28;;;;;;;3.40;3.05;;;15.00;99.90;;;;;;5078833;28;20185;-40
2023/06/15 01:40:56;;;;;;;2.85;2.60;;;14.90;99.90;;;;;;5072934;28;20043;-36
2023/06/15 01:43:25;;;;;;;4.95;3.30;;;14.90;99.90;;;;;;5075692;28;20412;-37
2023/06/15 01:45:52;;;;;;;5.97;3.60;;;14.90;99.90;;;;;;5088984;28;20030;-38
2023/06/15 01:48:19;;;;;;;5.70;3.25;;;14.80;99.90;;;;;;5084656;28;20032;-36
2023/06/15 01:50:45;;;;;;;3.70;3.40;;;14.80;99.90;;;;;;5079444;28;20039;-36
2023/06/15 01:53:11;;;;;;;5.40;3.35;;;14.80;99.90;;;;;;5073082;28;20071;-38
2023/06/15 01:55:37;;;;;;;4.18;3.20;;;14.80;99.90;;;;;;5088369;28;20036;-36
2023/06/15 01:58:02;;;;;;;5.07;2.97;;;14.70;99.90;;;;;;5068762;28;20086;-37
2023/06/15 02:00:28;;;;;;;5.53;3.00;;;14.70;99.90;;;;;;5082047;28;20405;-36
2023/06/15 02:02:54;;;;;;;7.70;3.45;;;14.70;99.90;;;;;;5086772;28;20027;-35
2023/06/15 02:05:20;;;;;;;4.47;3.25;;;14.70;99.90;;;;;;5084643;28;20378;-36
2023/06/15 02:07:46;;;;;;;4.35;3.67;;;14.70;99.90;;;;;;5091060;28;20043;-35
2023/06/15 02:10:12;;;;;;;4.28;2.97;;;14.60;99.90;;;;;;5074797;28;20497;-37
2023/06/15 02:12:37;;;;;;;6.03;3.40;;;14.60;99.90;;;;;;5072568;28;20043;-38
2023/06/15 02:15:04;;;;;;;7.65;3.80;;;14.60;99.90;;;;;;5074296;28;20490;-36
2023/06/15 02:17:39;;;;;;;4.03;3.63;;;14.60;99.90;;;;;;5083547;28;20268;-36
2023/06/15 02:20:09;;;;;;;7.68;3.78;;;14.50;99.90;;;;;;5081310;28;20407;-35
2023/06/15 02:22:36;;;;;;;4.65;3.97;;;14.50;99.90;;;;;;5086581;28;20035;-35
2023/06/15 02:25:01;;;;;;;4.00;3.40;;;14.40;99.90;;;;;;5088199;28;20485;-36
2023/06/15 02:27:27;;;;;;;7.20;3.90;;;14.40;99.90;;;;;;5087361;28;20044;-35
2023/06/15 02:29:53;;;;;;;8.68;3.97;;;14.40;99.90;;;;;;5089390;28;20039;-35
2023/06/15 02:32:35;;;;;;;5.80;3.47;;;14.40;99.90;;;;;;5087103;28;20119;-37
2023/06/15 02:35:05;;;;;;;5.40;3.60;;;14.30;99.90;;;;;;5085785;28;20031;-36
2023/06/15 02:37:31;;;;;;;3.78;3.38;;;14.30;99.90;;;;;;5080559;28;20074;-36
2023/06/15 02:39:57;;;;;;;6.22;3.50;;;14.30;99.90;;;;;;5080566;28;20036;-35
2023/06/15 02:42:23;;;;;;;5.97;4.18;;;14.30;99.90;;;;;;5084013;28;20036;-36
2023/06/15 02:44:49;;;;;;;4.63;3.20;;;14.20;99.90;;;;;;5084821;28;20038;-37
2023/06/15 02:47:15;;;;;;;4.20;3.45;;;14.20;99.90;;;;;;5079692;28;20542;-35
2023/06/15 02:49:40;;;;;;;4.55;3.53;;;14.20;99.90;;;;;;5087063;28;20477;-40
2023/06/15 02:52:07;;;;;;;4.40;3.67;;;14.10;99.90;;;;;;5083157;28;20418;-35
2023/06/15 02:54:32;;;;;;;4.97;4.03;;;14.20;99.90;;;;;;5071893;28;20388;-35
2023/06/15 02:56:58;;;;;;;8.07;4.18;;;14.10;99.90;;;;;;5083694;28;20085;-36
2023/06/15 02:59:25;;;;;;;4.65;3.47;;;14.10;99.90;;;;;;5105888;28;20464;-36
2023/06/15 03:01:54;;;;;;;6.75;4.22;;;14.10;99.90;;;;;;5080551;28;20033;-35
2023/06/15 03:04:23;;;;;;;6.05;4.00;;;14.10;99.90;;;;;;5087414;28;20035;-35
2023/06/15 03:06:49;;;;;;;4.32;3.55;;;14.00;99.90;;;;;;5081317;28;20032;-38
2023/06/15 03:09:20;;;;;;;6.05;4.00;;;14.00;99.90;;;;;;5072468;28;20048;-39
2023/06/15 03:11:46;;;;;;;4.20;3.78;;;13.90;99.90;;;;;;5083390;28;20495;-35
2023/06/15 03:14:12;;;;;;;5.38;3.55;;;13.90;99.90;;;;;;5080263;28;20028;-38
2023/06/15 03:16:46;;;;;;;5.40;3.95;;;13.90;99.90;;;;;;5063415;28;20028;-39
2023/06/15 03:19:15;;;;;;;5.07;3.33;;;13.90;99.90;;;;;;5082485;28;20040;-40
2023/06/15 03:21:41;;;;;;;5.13;3.97;;;13.90;99.90;;;;;;5080278;28;20031;-35
2023/06/15 03:24:08;;;;;;;7.63;4.60;;;13.80;99.90;;;;;;5087132;28;20059;-35
2023/06/15 03:26:36;;;;;;;7.40;4.28;;;13.80;99.90;;;;;;5081060;28;20024;-35
2023/06/15 03:29:02;;;;;;;5.00;3.17;;;13.90;99.90;;;;;;5096468;28;20044;-32
2023/06/15 03:31:33;;;;;;;6.60;4.15;;;13.90;99.90;;;;;;5096048;28;20050;-32
2023/06/15 03:34:02;;;;;;;3.88;3.45;;;13.80;99.90;;;;;;5096366;28;20039;-32
2023/06/15 03:36:31;;;;;;;6.28;4.47;;;13.80;99.90;;;;;;5096240;28;20504;-34
2023/06/15 03:38:58;;;;;;;4.78;3.83;;;13.80;99.90;;;;;;5096190;28;20039;-32
2023/06/15 03:41:27;;;;;;;10.13;4.50;;;13.70;99.90;;;;;;5095756;28;20119;-32
2023/06/15 03:43:53;;;;;;;8.02;4.57;;;13.70;99.90;;;;;;5096280;28;20105;-32
2023/06/15 03:46:19;;;;;;;9.70;4.13;;;13.70;99.90;;;;;;5096035;28;20027;-32
2023/06/15 03:48:45;;;;;;;5.72;4.28;;;13.70;99.90;;;;;;5095746;28;20556;-32
2023/06/15 03:51:12;;;;;;;6.68;4.10;;;13.70;99.90;;;;;;5095550;28;20099;-32
2023/06/15 03:53:41;;;;;;;9.88;4.38;;;13.70;99.90;;;;;;5095655;28;20043;-32
2023/06/15 03:56:07;;;;;;;6.63;4.40;;;13.70;99.90;;;;;;5095677;28;20104;-32
2023/06/15 03:58:33;;;;;;;6.35;4.30;;;13.80;99.90;;;;;;5095769;28;20039;-32
2023/06/15 04:01:00;;;;;;;5.90;3.85;;;13.80;99.90;;;;;;5113730;28;20028;-32
2023/06/15 04:03:26;;;;;;;7.55;4.53;;;13.80;99.90;;;;;;5095008;28;20096;-33
2023/06/15 04:05:52;;;;;;;7.55;4.28;;;13.80;99.90;;;;;;5095348;28;20118;-32
2023/06/15 04:08:19;;;;;;;8.23;4.13;;;13.90;99.90;;;;;;5095194;28;20039;-34
2023/06/15 04:10:45;;;;;;;7.03;4.25;;;13.90;99.90;;;;;;5095664;28;20422;-32
2023/06/15 04:13:10;;;;;;;6.57;4.55;;;13.90;99.90;;;;;;5095473;28;20096;-32
2023/06/15 04:15:36;;;;;;;6.38;4.65;;;13.90;99.90;;;;;;5095296;28;20043;-32
2023/06/15 04:18:03;;;;;;;7.68;4.88;;;14.00;99.90;;;;;;5095198;28;20118;-32
2023/06/15 04:20:29;;;;;;;7.35;4.35;;;14.00;99.90;;;;;;5095377;28;20067;-32
2023/06/15 04:22:56;;;;;;;4.60;4.15;;;14.00;99.90;;;;;;5095529;28;20519;-31
2023/06/15 04:25:22;;;;;;;6.15;5.55;;;14.10;99.90;;;;;;5095335;28;20530;-32
2023/06/15 04:27:49;;;;;;;9.02;4.53;;;14.10;99.90;;;;;;5095274;28;20043;-32
2023/06/15 04:30:16;;;;;;;6.65;5.00;;;14.10;99.90;;;;;;5095326;28;20071;-32
2023/06/15 04:32:46;;;;;;;5.90;4.30;;;14.20;99.90;;;;;;5095285;28;20044;-32
2023/06/15 04:35:17;;;;;;;8.15;4.30;;;14.30;99.90;;;;;;5113163;28;20120;-32
2023/06/15 04:37:44;;;;;;;6.07;4.43;;;14.30;99.90;;;;;;5094775;28;20047;-32
2023/06/15 04:40:10;;;;;;;6.60;4.82;;;14.40;99.90;;;;;;5095165;28;20069;-33
2023/06/15 04:42:37;;;;;;;5.40;4.50;;;14.40;99.90;;;;;;5094661;28;20043;-32
2023/06/15 04:45:04;;;;;;;8.77;4.75;;;14.50;99.90;;;;;;5095185;28;20068;-32
2023/06/15 04:47:29;;;;;;;6.53;4.30;;;14.50;99.90;;;;;;5094515;28;20046;-32
2023/06/15 04:49:55;;;;;;;5.43;4.45;;;14.60;99.90;;;;;;5094777;28;20044;-33
2023/06/15 04:52:21;;;;;;;5.20;4.05;;;14.60;99.90;;;;;;5095243;28;20036;-32
2023/06/15 04:54:47;;;;;;;7.32;4.10;;;14.70;99.90;;;;;;5080137;28;20039;-32
2023/06/15 04:57:13;;;;;;;5.15;4.45;;;14.80;99.90;;;;;;5075272;28;20443;-32
2023/06/15 04:59:39;;;;;;;6.80;4.85;;;14.80;99.90;;;;;;5074742;28;20040;-34
2023/06/15 05:02:07;;;;;;;6.22;4.95;;;14.90;99.90;;;;;;5060395;28;20032;-36
2023/06/15 05:04:32;;;;;;;8.70;4.95;;;15.00;99.90;;;;;;5077845;28;20115;-33
2023/06/15 05:06:59;;;;;;;7.85;4.95;;;15.00;99.90;;;;;;5075394;28;20111;-33
2023/06/15 05:09:24;;;;;;;10.75;4.82;;;15.10;99.90;;;;;;5074690;28;20040;-35
2023/06/15 05:11:50;;;;;;;5.50;4.72;;;15.20;99.90;;;;;;5084071;28;20039;-34
2023/06/15 05:14:16;;;;;;;6.10;4.90;;;15.30;99.90;;;;;;5074016;28;20494;-33
2023/06/15 05:16:41;;;;;;;9.40;4.80;;;15.30;99.90;;;;;;5084705;28;20032;-33
2023/06/15 05:19:07;;;;;;;7.95;4.82;;;15.40;99.90;;;;;;5076813;28;20417;-33
2023/06/15 05:21:33;;;;;;;4.93;4.13;;;15.50;99.90;;;;;;5057009;28;20055;-34
2023/06/15 05:23:59;;;;;;;5.13;4.35;;;15.60;99.90;;;;;;5063836;28;20086;-35
2023/06/15 05:26:25;;;;;;;8.40;4.30;;;15.60;99.90;;;;;;5065131;28;20038;-32
2023/06/15 05:28:52;;;;;;;5.65;4.13;;;15.70;99.90;;;;;;5090775;28;20039;-34
2023/06/15 05:31:18;;;;;;;6.10;4.35;;;15.80;99.90;;;;;;5066717;28;20429;-33
2023/06/15 05:33:44;;;;;;;4.75;4.13;;;15.90;99.90;;;;;;5062478;28;20040;-33
2023/06/15 05:36:09;;;;;;;7.28;4.38;;;16.10;99.90;;;;;;5065282;28;20040;-34
2023/06/15 05:38:35;;;;;;;7.93;4.75;;;16.20;99.90;;;;;;5063526;28;20610;-35
2023/06/15 05:41:01;;;;;;;6.80;3.80;;;16.30;99.90;;;;;;5065710;28;20121;-33
2023/06/15 05:43:27;;;;;;;6.85;4.20;;;16.40;99.90;;;;;;5062564;28;20374;-32
2023/06/15 05:45:52;;;;;;;5.63;3.42;;;16.60;99.90;;;;;;5057310;28;20036;-33
2023/06/15 05:48:19;;;;;;;6.90;4.05;;;16.60;99.90;;;;;;5063808;28;20048;-33
2023/06/15 05:50:46;;;;;;;5.82;3.90;;;16.70;99.90;;;;;;5067654;28;20043;-33
2023/06/15 05:53:11;;;;;;;4.30;3.35;;;16.80;99.90;;;;;;5082303;28;20047;-34
2023/06/15 05:55:37;;;;;;;3.95;3.30;;;17.00;99.90;;;;;;5056078;28;20044;-32
2023/06/15 05:58:03;;;;;;;5.50;4.22;;;17.10;99.90;;;;;;5066527;28;20035;-33
2023/06/15 06:00:31;;;;;;;5.93;3.55;;;17.20;99.90;;;;;;5069285;28;20028;-33
2023/06/15 06:02:57;;;;;;;9.35;3.58;;;17.30;99.90;;;;;;5062120;28;20027;-34
2023/06/15 06:05:23;;;;;;;5.85;3.63;;;17.50;99.90;;;;;;5070025;28;20064;-36
2023/06/15 06:07:50;;;;;;;4.97;3.50;;;17.60;99.90;;;;;;5064009;28;20501;-33
2023/06/15 06:10:18;;;;;;;6.20;4.60;;;17.60;99.90;;;;;;5073341;28;20043;-33
2023/06/15 06:12:44;;;;;;;4.80;3.53;;;17.80;99.90;;;;;;5070662;28;20115;-34
2023/06/15 06:15:10;;;;;;;9.30;3.67;;;17.80;99.90;;;;;;5084582;28;20118;-33
2023/06/15 06:17:35;;;;;;;4.78;3.75;;;18.00;99.90;;;;;;5072842;28;20081;-33
2023/06/15 06:20:02;;;;;;;3.60;3.20;;;18.10;99.90;;;;;;5066836;28;20036;-33
2023/06/15 06:22:28;;;;;;;4.43;3.55;;;18.20;99.90;;;;;;5077413;28;20040;-33
2023/06/15 06:24:53;;;;;;;4.10;3.58;;;18.30;99.90;;;;;;5080545;28;20081;-33
2023/06/15 06:27:19;;;;;;;4.05;3.45;;;18.40;99.90;;;;;;5075571;28;20476;-34
2023/06/15 06:29:45;;;;;;;5.55;3.50;;;18.60;99.90;;;;;;5085056;28;20118;-33
2023/06/15 06:32:10;;;;;;;5.05;3.40;;;18.70;99.90;;;;;;5085158;28;20407;-35
2023/06/15 06:34:36;;;;;;;4.65;3.13;;;18.80;99.90;;;;;;5068112;28;20032;-33
2023/06/15 06:37:05;;;;;;;5.85;3.38;;;18.90;99.90;;;;;;5075537;28;20082;-33
2023/06/15 06:39:32;;;;;;;6.05;3.72;;;19.00;99.90;;;;;;5064962;28;20445;-35
2023/06/15 06:41:58;;;;;;;5.05;3.80;;;19.10;99.90;;;;;;5083867;28;20396;-34
2023/06/15 06:44:24;;;;;;;4.85;3.67;;;19.20;99.90;;;;;;5084826;28;20031;-32
2023/06/15 06:46:49;;;;;;;4.32;3.08;;;19.30;99.90;;;;;;5087474;28;20078;-34
2023/06/15 06:49:15;;;;;;;5.28;3.38;;;19.40;99.90;;;;;;5086018;28;20115;-35
2023/06/15 06:51:41;;;;;;;6.60;3.42;;;19.60;99.90;;;;;;5081663;28;20039;-33
2023/06/15 06:54:07;;;;;;;4.05;3.22;;;19.70;99.90;;;;;;5083602;28;20036;-33
2023/06/15 06:56:32;;;;;;;5.50;3.25;;;19.80;99.90;;;;;;5080316;28;20078;-33
2023/06/15 06:58:58;;;;;;;6.07;3.40;;;20.00;99.90;;;;;;5073665;28;20065;-34
2023/06/15 07:01:24;;;;;;;3.95;3.20;;;20.10;99.90;;;;;;5065490;28;20035;-33
2023/06/15 07:03:50;;;;;;;5.65;3.05;;;20.30;99.90;;;;;;5068223;28;20032;-34
2023/06/15 07:06:16;;;;;;;5.88;3.00;;;20.40;99.90;;;;;;5084718;28;20046;-34
2023/06/15 07:08:42;;;;;;;6.80;3.60;;;20.50;99.90;;;;;;5067147;28;20390;-34
2023/06/15 07:11:08;;;;;;;5.43;3.45;;;20.60;99.90;;;;;;5069958;28;20532;-34
2023/06/15 07:13:34;;;;;;;5.15;3.17;;;20.70;99.90;;;;;;5081762;28;20119;-36
2023/06/15 07:16:00;;;;;;;4.05;3.55;;;20.80;99.90;;;;;;5078638;28;20043;-36
2023/06/15 07:18:25;;;;;;;3.88;3.47;;;21.00;99.90;;;;;;5080963;28;20421;-34
2023/06/15 07:20:54;;;;;;;7.00;3.38;;;21.10;99.90;;;;;;5080630;28;20108;-33
2023/06/15 07:23:24;;;;;;;8.00;3.58;;;21.20;99.90;;;;;;5067389;28;20032;-34
2023/06/15 07:25:52;;;;;;;5.07;3.50;;;21.40;99.90;;;;;;5073602;28;20059;-35
2023/06/15 07:28:18;;;;;;;6.65;3.53;;;21.60;99.30;;;;;;5077141;28;20040;-36
2023/06/15 07:30:46;;;;;;;6.85;3.15;;;21.70;98.00;;;;;;5078146;28;20079;-33
2023/06/15 07:33:12;;;;;;;5.10;3.50;;;21.80;95.50;;;;;;5072728;28;20044;-34
2023/06/15 07:35:38;;;;;;;8.45;3.28;;;21.80;94.30;;;;;;5075343;28;20463;-33
2023/06/15 07:38:04;;;;;;;6.07;3.60;;;22.00;94.70;;;;;;5081462;28;20044;-34
2023/06/15 07:40:29;;;;;;;4.25;3.40;;;22.20;94.40;;;;;;5089680;28;20059;-33
2023/06/15 07:42:55;;;;;;;5.38;3.40;;;22.30;93.40;;;;;;5079594;28;20397;-33
2023/06/15 07:45:21;;;;;;;4.90;3.30;;;22.40;92.20;;;;;;5074487;28;20064;-34
2023/06/15 07:47:46;;;;;;;7.25;3.38;;;22.50;91.30;;;;;;5086748;28;20040;-37
2023/06/15 07:50:12;;;;;;;6.13;3.30;;;22.60;90.80;;;;;;5082795;28;20040;-33
2023/06/15 07:52:38;;;;;;;6.57;3.75;;;22.70;89.00;;;;;;5074756;28;20032;-33
2023/06/15 07:55:05;;;;;;;5.50;3.22;;;22.80;88.60;;;;;;5080798;28;20113;-33
2023/06/15 07:57:31;;;;;;;9.50;3.63;;;22.90;88.70;;;;;;5084427;28;20040;-34
2023/06/15 07:59:58;;;;;;;4.13;2.92;;;23.10;85.90;;;;;;5081900;28;20399;-33
2023/06/15 08:02:24;;;;;;;4.85;3.25;;;23.20;85.90;;;;;;5076873;28;20446;-33
2023/06/15 08:04:49;;;;;;;3.53;3.00;;;23.40;83.70;;;;;;5085028;28;20132;-34
2023/06/15 08:07:15;;;;;;;5.80;2.85;;;23.60;82.80;;;;;;5073124;28;20513;-34
2023/06/15 08:09:42;;;;;;;4.90;3.08;;;23.70;79.00;;;;;;5087355;28;20459;-34
2023/06/15 08:12:09;;;;;;;4.55;3.03;;;23.80;76.00;;;;;;5079654;28;20043;-35
2023/06/15 08:14:37;;;;;;;7.22;3.30;;;24.00;74.70;;;;;;5084377;28;20039;-33
2023/06/15 08:17:03;;;;;;;4.32;2.80;;;24.10;74.60;;;;;;5077653;28;20141;-34
2023/06/15 08:19:29;;;;;;;5.72;3.20;;;24.20;72.50;;;;;;5074453;28;20127;-33
2023/06/15 08:21:55;;;;;;;8.02;3.15;;;24.40;70.70;;;;;;5080909;28;20177;-33
2023/06/15 08:24:21;;;;;;;6.70;3.53;;;24.50;68.80;;;;;;5078188;28;20033;-33
2023/06/15 08:26:48;;;;;;;3.75;3.15;;;24.70;68.30;;;;;;5078110;28;20507;-34
2023/06/15 08:29:15;;;;;;;4.97;2.92;;;24.70;67.60;;;;;;5077882;28;20050;-40
2023/06/15 08:31:40;;;;;;;3.97;2.80;;;24.80;64.70;;;;;;5084639;28;20078;-34
2023/06/15 08:34:07;;;;;;;3.90;2.72;;;24.80;63.00;;;;;;5085886;28;20476;-34
2023/06/15 08:36:33;;;;;;;7.07;3.38;;;25.00;63.00;;;;;;5078178;28;20051;-36
2023/06/15 08:38:58;;;;;;;5.53;3.35;;;25.10;62.80;;;;;;5063335;28;20036;-33
2023/06/15 08:41:26;;;;;;;4.53;3.22;;;25.30;62.20;;;;;;5068929;28;20032;-34
2023/06/15 08:43:56;;;;;;;5.40;2.72;;;25.40;62.70;;;;;;5081475;28;20078;-36
2023/06/15 08:46:25;;;;;;;4.43;2.92;;;25.70;60.70;;;;;;5066321;28;20094;-36
2023/06/15 08:48:52;;;;;;;4.68;2.78;;;25.90;58.70;;;;;;5064150;28;20129;-37
2023/06/15 08:51:19;;;;;;;6.00;3.03;;;25.90;59.10;;;;;;5067782;28;20044;-33
2023/06/15 08:53:47;;;;;;;4.05;2.65;;;25.90;57.60;;;;;;5066164;28;20040;-34
2023/06/15 08:56:13;;;;;;;4.03;2.90;;;26.00;57.40;;;;;;5061027;28;20048;-35
2023/06/15 08:58:41;;;;;;;5.00;3.30;;;26.20;58.30;;;;;;5057908;28;20043;-34
2023/06/15 09:01:08;;;;;;;2.58;2.38;;;26.40;57.50;;;;;;5063487;28;20036;-34
2023/06/15 09:03:34;;;;;;;3.47;2.72;;;26.50;56.20;;;;;;5060738;28;20032;-34
2023/06/15 09:06:00;;;;;;;3.55;2.85;;;26.50;55.40;;;;;;5068048;28;20115;-34
2023/06/15 09:08:26;;;;;;;5.15;2.90;;;26.40;54.20;;;;;;5063340;28;20667;-34
2023/06/15 09:11:05;;;;;;;4.35;2.80;;;26.40;53.10;;;;;;5070856;28;20118;-34
2023/06/15 09:13:33;;;;;;;3.95;3.30;;;26.50;53.90;;;;;;5063419;28;20040;-38
2023/06/15 09:16:00;;;;;;;4.25;3.00;;;26.60;54.20;;;;;;5067595;28;20100;-34
2023/06/15 09:18:26;;;;;;;4.25;3.10;;;26.80;52.70;;;;;;5067604;28;20480;-33
2023/06/15 09:20:56;;;;;;;3.90;2.80;;;27.00;52.60;;;;;;5068140;28;20032;-34
2023/06/15 09:23:23;;;;;;;5.40;3.03;;;27.00;52.60;;;;;;5066375;28;20055;-34
2023/06/15 09:25:54;;;;;;;7.00;3.17;;;27.20;52.60;;;;;;5066993;28;20048;-34
2023/06/15 09:28:27;;;;;;;6.15;3.40;;;27.40;51.70;;;;;;5074946;28;20040;-34
2023/06/15 09:30:57;;;;;;;;;;;27.60;52.40;;;;;;5080386;28;20063;-34
2023/06/15 09:33:23;;;;;;;3.38;2.75;;;27.70;50.40;;;;;;5063542;28;19923;-35
2023/06/15 09:35:57;;;;;;;4.45;2.83;;;27.80;52.70;;;;;;5071146;28;20031;-34
2023/06/15 09:38:45;;;;;;;3.53;3.22;;;27.80;51.20;;;;;;5069505;28;20504;-38
2023/06/15 09:41:13;;;;;;;3.25;2.78;;;28.00;52.20;;;;;;5064014;28;20473;-34
2023/06/15 09:43:40;;;;;;;6.15;3.30;;;28.10;51.30;;;;;;5060007;28;20032;-35
2023/06/15 09:46:15;;;;;;;4.53;2.92;;;28.20;50.20;;;;;;5080260;28;20028;-37
2023/06/15 09:48:43;;;;;;;5.63;3.20;;;28.50;49.80;;;;;;5065092;28;20439;-34
2023/06/15 09:51:10;;;;;;;3.60;3.03;;;28.50;48.60;;;;;;5076385;28;20075;-34
2023/06/15 09:53:39;;;;;;;5.93;3.22;;;28.60;49.70;;;;;;5064781;28;20040;-34
2023/06/15 09:56:05;;;;;;;3.13;2.67;;;28.60;49.70;;;;;;5076066;28;20439;-34
2023/06/15 09:58:31;;;;;;;3.53;2.83;;;28.90;49.30;;;;;;5065694;28;20393;-35
2023/06/15 10:01:04;;;;;;;2.83;2.63;;;28.90;46.90;;;;;;5080491;28;20027;-34
2023/06/15 10:03:33;;;;;;;;;;;28.90;45.10;;;;;;5073917;28;20396;-35
2023/06/15 10:06:09;;;;;;;4.60;3.30;;;28.90;41.40;;;;;;5071465;28;20002;-35
2023/06/15 10:08:38;;;;;;;3.08;2.88;;;28.90;45.80;;;;;;5077992;28;20048;-35
2023/06/15 10:11:04;;;;;;;3.63;3.05;;;29.10;45.70;;;;;;5083315;28;20381;-34
2023/06/15 10:13:52;;;;;;;3.15;2.85;;;29.20;45.80;;;;;;5082645;28;20190;-35
2023/06/15 10:16:20;;;;;;;5.20;3.05;;;29.30;42.20;;;;;;5077017;28;20043;-35
2023/06/15 10:18:52;;;;;;;5.38;3.33;;;29.30;43.10;;;;;;5081959;28;20119;-34
2023/06/15 10:21:23;;;;;;;6.43;2.63;;;29.40;43.70;;;;;;5069214;28;20040;-35
2023/06/15 10:23:53;;;;;;;5.13;3.33;;;29.60;44.30;;;;;;5056788;28;20402;-35
2023/06/15 10:26:20;;;;;;;5.68;2.90;;;29.80;44.00;;;;;;5071663;28;20039;-35
2023/06/15 10:29:12;;;;;;;7.15;2.95;;;30.00;43.90;;;;;;5077730;28;20047;-34
2023/06/15 10:31:45;;;;;;;7.23;2.97;;;30.40;42.60;;;;;;5075419;28;20115;-35
2023/06/15 10:34:21;;;;;;;4.78;3.30;;;30.30;42.00;;;;;;5087351;28;20176;-37
2023/06/15 10:37:10;;;;;;;3.25;2.95;;;30.50;41.00;;;;;;5068818;28;20051;-34
2023/06/15 10:39:41;;;;;;;3.75;2.88;;;30.70;39.80;;;;;;5081452;28;20036;-35
2023/06/15 10:42:08;;;;;;;3.40;3.10;;;30.90;39.90;;;;;;5079155;28;20033;-34
2023/06/15 10:44:34;;;;;;;4.38;3.00;;;30.90;39.20;;;;;;5067194;28;20033;-37
2023/06/15 10:47:12;;;;;;;4.57;3.42;;;30.90;40.40;;;;;;5069005;28;20040;-35
2023/06/15 10:50:12;;;;;;;4.70;2.75;;;31.10;40.00;;;;;;5072562;28;20404;-36
2023/06/15 10:52:57;;;;;;;3.70;2.78;;;31.00;40.00;;;;;;5092214;28;20040;-38
2023/06/15 10:55:23;;;;;;;4.55;3.05;;;31.30;40.50;;;;;;5065102;28;20039;-35
2023/06/15 10:58:18;;;;;;;4.53;3.20;;;31.30;39.90;;;;;;5065793;28;20040;-35
2023/06/15 11:01:03;;;;;;;4.13;2.80;;;31.50;38.70;;;;;;5073666;28;20171;-35
2023/06/15 11:03:32;;;;;;;3.05;2.85;;;31.70;38.40;;;;;;5082584;28;20079;-35
2023/06/15 11:06:02;;;;;;;3.55;2.97;;;31.60;37.90;;;;;;5082675;28;20027;-35
2023/06/15 11:08:30;;;;;;;5.32;2.95;;;31.50;38.10;;;;;;5084367;28;20067;-36
2023/06/15 11:10:57;;;;;;;3.85;3.42;;;31.40;38.00;;;;;;5087384;28;20036;-38
2023/06/15 11:13:26;;;;;;;3.47;2.85;;;31.40;38.70;;;;;;5086855;28;20165;-34
2023/06/15 11:16:09;;;;;;;5.00;2.88;;;31.60;38.90;;;;;;5078428;28;20040;-36
2023/06/15 11:18:35;;;;;;;;;;;31.80;37.00;;;;;;5072805;28;20970;-35
2023/06/15 11:21:02;;;;;;;5.05;2.80;;;31.60;37.80;;;;;;5075447;28;19917;-36
2023/06/15 11:23:37;;;;;;;4.38;3.13;;;31.40;38.40;;;;;;5076187;28;20036;-35
2023/06/15 11:26:02;;;;;;;3.05;2.78;;;31.50;36.90;;;;;;5067851;28;20032;-39
2023/06/15 11:28:33;;;;;;;4.18;3.20;;;31.50;37.00;;;;;;5069209;28;20047;-35
2023/06/15 11:31:00;;;;;;;4.20;3.30;;;31.40;36.00;;;;;;5071065;28;20044;-35
2023/06/15 11:33:31;;;;;;;6.95;3.33;;;31.30;37.00;;;;;;5073647;28;20048;-34
2023/06/15 11:36:08;;;;;;;4.40;2.88;;;31.70;38.50;;;;;;5060916;28;20043;-35
2023/06/15 11:38:34;;;;;;;4.53;3.10;;;31.80;37.30;;;;;;5078754;28;20120;-34
2023/06/15 11:41:08;;;;;;;4.57;2.95;;;32.10;37.70;;;;;;5082401;28;20480;-35
2023/06/15 11:43:37;;;;;;;3.70;3.28;;;32.30;36.20;;;;;;5076894;28;20032;-35
2023/06/15 11:46:03;;;;;;;4.57;2.85;;;32.50;36.60;;;;;;5063567;28;20033;-37
2023/06/15 11:52:16;;;;;;;3.90;2.90;;;32.70;37.60;;;;;;5076520;28;20051;-34
2023/06/15 11:54:42;;;;;;;6.00;3.23;;;32.70;37.10;;;;;;5055925;28;20040;-36
2023/06/15 11:59:43;;;;;;;3.53;3.10;;;33.00;36.70;;;;;;5127523;22;20049;-88
2023/06/15 12:02:11;;;;;;;4.82;3.22;;;33.50;36.60;;;;;;5019686;28;20400;-88
2023/06/15 12:04:37;;;;;;;3.20;2.88;;;33.60;35.30;;;;;;5029201;28;20053;-87
2023/06/15 12:07:06;;;;;;;6.28;3.67;;;33.70;35.20;;;;;;5012764;28;20045;-88
2023/06/15 12:09:48;;;;;;;5.88;3.08;;;33.50;34.40;;;;;;5009969;28;20037;-87
2023/06/15 12:12:42;;;;;;;4.63;3.08;;;33.60;32.70;;;;;;5005027;28;20044;-88
2023/06/15 12:15:24;;;;;;;7.25;3.30;;;33.40;33.80;;;;;;5014417;28;20056;-89
2023/06/15 12:18:22;;;;;;;3.35;2.95;;;33.60;35.50;;;;;;5008464;28;20056;-88
2023/06/15 12:24:40;;;;;;;5.60;3.13;;;34.00;34.80;;;;;;5032767;28;20054;-89
2023/06/15 12:30:40;;;;;;;4.57;3.30;;;33.90;35.00;;;;;;5027305;28;20138;-89
2023/06/15 12:34:13;;;;;;;5.68;3.58;;;33.70;34.20;;;;;;4998750;28;20103;-89
2023/06/15 12:39:59;;;;;;;4.43;3.13;;;33.80;33.50;;;;;;5019183;28;20533;-90
2023/06/15 12:42:41;;;;;;;3.70;2.90;;;33.80;33.40;;;;;;5015194;28;20493;-89
2023/06/15 12:45:23;;;;;;;4.28;3.10;;;33.90;32.90;;;;;;5019983;28;20041;-88
2023/06/15 12:50:36;;;;;;;3.00;2.80;;;34.70;33.70;;;;;;5018050;28;20132;-87
2023/06/15 12:53:02;;;;;;;3.08;2.72;;;34.70;34.10;;;;;;4999661;28;20037;-87
2023/06/15 12:55:28;;;;;;;4.90;2.92;;;34.80;33.10;;;;;;5010792;28;20037;-89
2023/06/15 12:57:55;;;;;;;4.38;3.08;;;34.60;33.40;;;;;;5000059;28;20029;-88
2023/06/15 13:00:25;;;;;;;3.50;2.70;;;34.40;32.50;;;;;;5016700;28;20692;-87
2023/06/15 13:02:50;;;;;;;3.10;2.60;;;34.10;32.50;;;;;;5017874;28;20051;-87
2023/06/15 13:05:16;;;;;;;5.72;2.95;;;33.90;31.70;;;;;;5015929;28;20053;-88
2023/06/15 13:07:42;;;;;;;5.20;2.90;;;34.30;32.20;;;;;;5018987;28;20041;-87
2023/06/15 13:10:08;;;;;;;2.88;2.65;;;34.40;31.80;;;;;;5007531;28;20026;-87
2023/06/15 13:12:38;;;;;;;4.75;2.53;;;34.40;31.90;;;;;;5010590;28;20076;-88
2023/06/15 13:15:06;;;;;;;6.30;3.00;;;34.80;33.00;;;;;;5018773;28;20433;-88